Time;durP1;ratioP1;P1;durP2;ratioP2;P2;SDS_P1;SDS_P2;PMS_P1;PMS_P2;Temp;Humidity;BMP_temperature;BMP_pressure;BME280_temperature;BME280_humidity;BME280_pressure;Samples;Min_cycle;Max_cycle;Signal;HPM_P1;HPM_P2
2021/07/04 00:00:16;;;;;;;9.60;8.60;;;14.70;99.90;;;;;;5104765;28;20201;-48
2021/07/04 00:02:43;;;;;;;10.33;9.37;;;14.70;99.90;;;;;;5096542;28;20255;-49
2021/07/04 00:05:13;;;;;;;11.80;10.53;;;14.60;99.90;;;;;;5090297;28;20240;-45
2021/07/04 00:07:41;;;;;;;12.23;10.80;;;14.60;99.90;;;;;;5096688;28;20197;-44
2021/07/04 00:10:09;;;;;;;14.90;10.40;;;14.50;99.90;;;;;;5104253;28;20217;-49
2021/07/04 00:12:36;;;;;;;11.50;10.50;;;14.40;99.90;;;;;;5100768;28;20219;-46
2021/07/04 00:15:04;;;;;;;9.73;8.77;;;14.40;99.90;;;;;;5102045;28;20244;-47
2021/07/04 00:17:33;;;;;;;8.33;7.53;;;14.30;99.90;;;;;;5097559;28;20205;-46
2021/07/04 00:19:59;;;;;;;9.53;8.40;;;14.30;99.90;;;;;;5103447;28;20255;-46
2021/07/04 00:22:26;;;;;;;9.60;8.70;;;14.30;99.90;;;;;;5085154;28;20217;-46
2021/07/04 00:24:53;;;;;;;8.80;8.00;;;14.30;99.90;;;;;;5101399;28;20182;-47
2021/07/04 00:27:19;;;;;;;8.60;7.80;;;14.30;99.90;;;;;;5100006;28;20205;-49
2021/07/04 00:29:46;;;;;;;8.97;8.07;;;14.30;99.90;;;;;;5091215;28;20344;-45
2021/07/04 00:32:12;;;;;;;11.07;8.37;;;14.30;99.90;;;;;;5104464;27;20685;-49
2021/07/04 00:34:41;;;;;;;8.77;7.83;;;14.30;99.90;;;;;;5093684;28;20205;-48
2021/07/04 00:37:08;;;;;;;7.77;6.93;;;14.20;99.90;;;;;;5084582;28;20281;-48
2021/07/04 00:39:34;;;;;;;8.83;8.10;;;14.20;99.90;;;;;;5100320;28;20510;-50
2021/07/04 00:42:01;;;;;;;8.80;8.07;;;14.20;99.90;;;;;;5101481;28;20221;-47
2021/07/04 00:44:28;;;;;;;9.67;8.30;;;14.20;99.90;;;;;;5102303;28;20284;-48
2021/07/04 00:46:55;;;;;;;12.60;9.50;;;14.10;99.90;;;;;;5099913;28;20193;-48
2021/07/04 00:49:22;;;;;;;12.53;9.67;;;14.10;99.90;;;;;;5080546;28;20213;-47
2021/07/04 00:51:50;;;;;;;9.50;8.60;;;14.10;99.90;;;;;;5084859;28;21036;-47
2021/07/04 00:54:17;;;;;;;11.17;9.57;;;14.10;99.90;;;;;;5102118;28;20201;-48
2021/07/04 00:56:44;;;;;;;9.70;9.00;;;14.10;99.90;;;;;;5091721;28;20392;-49
2021/07/04 00:59:13;;;;;;;8.33;7.53;;;14.10;99.90;;;;;;5103690;28;20258;-47
2021/07/04 01:01:39;;;;;;;8.00;7.40;;;14.10;99.90;;;;;;5092239;28;20224;-49
2021/07/04 01:04:07;;;;;;;8.23;7.47;;;14.10;99.90;;;;;;5102304;28;20681;-47
2021/07/04 01:06:35;;;;;;;8.23;7.53;;;14.10;99.90;;;;;;5095435;28;20205;-46
2021/07/04 01:09:03;;;;;;;7.73;7.10;;;14.10;99.90;;;;;;5087399;28;20212;-47
2021/07/04 01:11:31;;;;;;;8.20;7.40;;;14.10;99.90;;;;;;5095474;28;20326;-46
2021/07/04 01:13:58;;;;;;;8.83;7.97;;;14.10;99.90;;;;;;5094234;28;20428;-46
2021/07/04 01:16:28;;;;;;;9.83;7.90;;;14.10;99.90;;;;;;5096479;28;20686;-46
2021/07/04 01:18:55;;;;;;;8.00;7.30;;;14.00;99.90;;;;;;5094674;28;20205;-46
2021/07/04 01:21:32;;;;;;;7.87;7.27;;;14.00;99.90;;;;;;5101312;28;20224;-46
2021/07/04 01:24:01;;;;;;;9.83;7.57;;;14.00;99.90;;;;;;5087471;28;20224;-50
2021/07/04 01:26:28;;;;;;;10.93;6.77;;;13.90;99.90;;;;;;5100244;28;20197;-47
2021/07/04 01:28:54;;;;;;;7.27;6.60;;;13.80;99.90;;;;;;5100708;28;20468;-46
2021/07/04 01:31:22;;;;;;;6.90;6.30;;;13.70;99.90;;;;;;5101040;28;20236;-52
2021/07/04 01:33:57;;;;;;;6.97;6.37;;;13.70;99.90;;;;;;5101554;28;20366;-46
2021/07/04 01:36:37;;;;;;;6.53;5.87;;;13.70;99.90;;;;;;5093068;28;20220;-47
2021/07/04 01:39:07;;;;;;;6.90;6.20;;;13.60;99.90;;;;;;5081865;28;20201;-48
2021/07/04 01:41:37;;;;;;;7.70;6.10;;;13.60;99.90;;;;;;5096757;28;20225;-48
2021/07/04 01:44:09;;;;;;;6.40;5.57;;;13.60;99.90;;;;;;5093727;28;20288;-47
2021/07/04 01:46:36;;;;;;;6.37;5.77;;;13.60;99.90;;;;;;5094229;28;20573;-51
2021/07/04 01:49:10;;;;;;;6.87;5.93;;;13.70;99.90;;;;;;5099764;28;20201;-46
2021/07/04 01:51:37;;;;;;;7.70;6.93;;;13.60;99.90;;;;;;5090664;28;20307;-46
2021/07/04 01:54:07;;;;;;;9.90;6.63;;;13.50;99.90;;;;;;5092571;28;20559;-50
2021/07/04 01:56:40;;;;;;;6.67;6.17;;;13.50;99.90;;;;;;5098431;28;20201;-50
2021/07/04 01:59:08;;;;;;;6.57;6.03;;;13.50;99.90;;;;;;5099434;28;20215;-53
2021/07/04 02:01:52;;;;;;;7.13;5.80;;;13.40;99.90;;;;;;5103003;28;20228;-48
2021/07/04 02:04:21;;;;;;;6.23;5.70;;;13.40;99.90;;;;;;5096851;28;20811;-47
2021/07/04 02:06:57;;;;;;;5.57;5.07;;;13.40;99.90;;;;;;5093886;28;20243;-47
2021/07/04 02:09:26;;;;;;;6.83;6.13;;;13.40;99.90;;;;;;5089849;28;20305;-48
2021/07/04 02:11:53;;;;;;;6.90;6.27;;;13.40;99.90;;;;;;5083841;28;20217;-46
2021/07/04 02:14:20;;;;;;;6.20;5.60;;;13.50;99.90;;;;;;5097172;28;20216;-49
2021/07/04 02:17:04;;;;;;;9.37;6.37;;;13.40;99.90;;;;;;5093596;28;20208;-48
2021/07/04 02:19:50;;;;;;;5.93;5.43;;;13.50;99.90;;;;;;5102556;28;20569;-48
2021/07/04 02:22:32;;;;;;;6.57;5.87;;;13.40;99.90;;;;;;5100744;28;20365;-46
2021/07/04 02:25:29;;;;;;;6.70;6.00;;;13.40;99.90;;;;;;5090026;28;20792;-48
2021/07/04 02:27:57;;;;;;;6.40;5.63;;;13.40;99.90;;;;;;5086048;28;20202;-50
2021/07/04 02:30:32;;;;;;;6.17;5.67;;;13.40;99.90;;;;;;5100261;28;20205;-47
2021/07/04 02:33:03;;;;;;;6.73;6.03;;;13.40;99.90;;;;;;5103748;28;20244;-48
2021/07/04 02:35:32;;;;;;;8.00;6.73;;;13.40;99.90;;;;;;5103354;28;20664;-46
2021/07/04 02:38:00;;;;;;;6.63;6.10;;;13.40;99.90;;;;;;5105233;28;20201;-49
2021/07/04 02:40:35;;;;;;;7.00;6.30;;;13.40;99.90;;;;;;5089962;28;20433;-47
2021/07/04 02:43:05;;;;;;;6.77;5.70;;;13.40;99.90;;;;;;5089789;28;20307;-48
2021/07/04 02:45:33;;;;;;;6.87;6.20;;;13.40;99.90;;;;;;5097902;28;20201;-46
2021/07/04 02:48:08;;;;;;;6.63;5.90;;;13.30;99.90;;;;;;5102174;28;20201;-50
2021/07/04 02:50:40;;;;;;;7.47;6.10;;;13.30;99.90;;;;;;5103848;28;20207;-47
2021/07/04 02:53:09;;;;;;;7.37;5.87;;;13.30;99.90;;;;;;5102158;28;20205;-52
2021/07/04 02:55:38;;;;;;;7.23;5.97;;;13.30;99.90;;;;;;5103563;28;20296;-53
2021/07/04 02:58:05;;;;;;;5.50;5.10;;;13.30;99.90;;;;;;5095076;28;20205;-48
2021/07/04 03:00:32;;;;;;;6.23;5.73;;;13.30;99.90;;;;;;5097957;28;20811;-47
2021/07/04 03:02:59;;;;;;;6.23;5.63;;;13.30;99.90;;;;;;5095612;28;20252;-50
2021/07/04 03:05:26;;;;;;;5.53;5.10;;;13.30;99.90;;;;;;5102994;28;20450;-51
2021/07/04 03:07:53;;;;;;;5.70;5.20;;;13.30;99.90;;;;;;5102159;28;20303;-52
2021/07/04 03:10:22;;;;;;;5.83;5.23;;;13.30;99.90;;;;;;5101851;28;20448;-48
2021/07/04 03:12:53;;;;;;;6.23;5.67;;;13.30;99.90;;;;;;5099988;28;20232;-47
2021/07/04 03:15:20;;;;;;;6.13;5.37;;;13.30;99.90;;;;;;5089386;28;20404;-51
2021/07/04 03:17:48;;;;;;;6.30;5.13;;;13.20;99.90;;;;;;5104350;28;20198;-54
2021/07/04 03:20:17;;;;;;;5.87;5.37;;;13.20;99.90;;;;;;5088208;28;20201;-52
2021/07/04 03:22:49;;;;;;;5.70;5.20;;;13.20;99.90;;;;;;5104766;28;20643;-47
2021/07/04 03:25:18;;;;;;;5.63;5.23;;;13.10;99.90;;;;;;5094266;28;20911;-47
2021/07/04 03:27:46;;;;;;;5.83;5.27;;;13.10;99.90;;;;;;5104235;28;20197;-47
2021/07/04 03:30:17;;;;;;;5.90;5.50;;;13.10;99.90;;;;;;5088082;28;20613;-47
2021/07/04 03:32:47;;;;;;;6.27;5.70;;;13.10;99.90;;;;;;5103719;28;20735;-48
2021/07/04 03:35:15;;;;;;;5.90;5.40;;;13.10;99.90;;;;;;5100703;28;20205;-47
2021/07/04 03:37:44;;;;;;;5.80;5.30;;;13.10;99.90;;;;;;5103898;28;20597;-48
2021/07/04 03:40:14;;;;;;;5.67;5.17;;;13.10;99.90;;;;;;5093714;28;20198;-49
2021/07/04 03:42:41;;;;;;;5.77;5.37;;;13.10;99.90;;;;;;5101140;28;20727;-47
2021/07/04 03:45:10;;;;;;;5.67;5.27;;;13.10;99.90;;;;;;5093429;28;20615;-47
2021/07/04 03:47:39;;;;;;;5.17;4.77;;;13.20;99.90;;;;;;5088277;28;20210;-50
2021/07/04 03:50:09;;;;;;;5.50;5.10;;;13.20;99.90;;;;;;5094970;28;20571;-46
2021/07/04 03:52:41;;;;;;;5.77;5.27;;;13.20;99.90;;;;;;5104494;28;20209;-49
2021/07/04 03:55:13;;;;;;;5.40;5.00;;;13.20;99.90;;;;;;5099895;28;20209;-47
2021/07/04 03:57:43;;;;;;;5.50;5.03;;;13.20;99.90;;;;;;5104629;28;20244;-51
2021/07/04 04:00:23;;;;;;;5.83;5.40;;;13.20;99.90;;;;;;5090034;28;20844;-47
2021/07/04 04:03:03;;;;;;;6.03;5.27;;;13.20;99.90;;;;;;5102237;28;20618;-46
2021/07/04 04:05:35;;;;;;;5.37;4.97;;;13.20;99.90;;;;;;5092202;28;20205;-47
2021/07/04 04:08:06;;;;;;;5.63;5.13;;;13.20;99.90;;;;;;5099163;28;20233;-45
2021/07/04 04:10:34;;;;;;;5.70;5.30;;;13.30;99.90;;;;;;5091347;28;20463;-47
2021/07/04 04:13:07;;;;;;;5.37;4.83;;;13.40;99.90;;;;;;5092483;28;20209;-46
2021/07/04 04:15:38;;;;;;;5.20;4.60;;;13.40;99.90;;;;;;5103109;28;20197;-47
2021/07/04 04:18:07;;;;;;;5.40;5.00;;;13.50;99.90;;;;;;5088008;28;20205;-49
2021/07/04 04:20:37;;;;;;;5.23;4.80;;;13.50;99.90;;;;;;5102036;28;20194;-47
2021/07/04 04:23:08;;;;;;;6.17;5.57;;;13.60;99.90;;;;;;5093160;28;20739;-46
2021/07/04 04:25:35;;;;;;;5.10;4.67;;;13.60;99.90;;;;;;5104000;28;20594;-47
2021/07/04 04:28:05;;;;;;;5.50;5.10;;;13.60;99.90;;;;;;5088087;28;20201;-49
2021/07/04 04:30:34;;;;;;;5.40;5.00;;;13.70;99.90;;;;;;5100862;28;20677;-46
2021/07/04 04:33:01;;;;;;;6.17;5.03;;;13.70;99.90;;;;;;5090245;28;20236;-51
2021/07/04 04:35:29;;;;;;;5.33;4.93;;;13.70;99.90;;;;;;5099589;28;20212;-46
2021/07/04 04:37:56;;;;;;;4.87;4.40;;;13.80;99.90;;;;;;5100432;28;20197;-60
2021/07/04 04:40:23;;;;;;;4.60;4.30;;;13.80;99.90;;;;;;5102774;28;20194;-61
2021/07/04 04:42:50;;;;;;;4.60;4.23;;;13.90;99.90;;;;;;5087374;28;20296;-59
2021/07/04 04:45:17;;;;;;;5.87;5.20;;;14.00;99.90;;;;;;5104471;28;20208;-58
2021/07/04 04:47:44;;;;;;;4.83;4.53;;;14.00;99.90;;;;;;5071086;28;20886;-60
2021/07/04 04:50:11;;;;;;;5.23;4.93;;;14.10;99.90;;;;;;5102498;28;20615;-58
2021/07/04 04:52:39;;;;;;;5.40;5.00;;;14.10;99.90;;;;;;5090378;28;20220;-60
2021/07/04 04:55:08;;;;;;;5.63;5.13;;;14.20;99.90;;;;;;5104110;28;20203;-58
2021/07/04 04:57:35;;;;;;;5.20;4.80;;;14.30;99.90;;;;;;5088912;28;20233;-60
2021/07/04 05:00:03;;;;;;;4.87;4.57;;;14.30;99.90;;;;;;5087511;28;20212;-60
2021/07/04 05:02:29;;;;;;;5.43;5.03;;;14.40;99.90;;;;;;5097752;28;20244;-60
2021/07/04 05:04:56;;;;;;;4.67;4.37;;;14.50;99.90;;;;;;5078701;28;20212;-60
2021/07/04 05:07:23;;;;;;;5.30;4.90;;;14.50;99.90;;;;;;5090379;27;20213;-59
2021/07/04 05:09:50;;;;;;;5.13;4.73;;;14.70;99.90;;;;;;5101097;28;20186;-61
2021/07/04 05:12:17;;;;;;;6.67;5.07;;;14.70;99.90;;;;;;5094417;28;23369;-61
2021/07/04 05:14:44;;;;;;;4.97;4.53;;;14.80;99.90;;;;;;5099728;28;20208;-61
2021/07/04 05:17:10;;;;;;;5.53;4.53;;;14.90;99.90;;;;;;5097066;28;20383;-61
2021/07/04 05:19:37;;;;;;;5.30;4.73;;;14.90;99.90;;;;;;5087445;28;20209;-61
2021/07/04 05:22:04;;;;;;;4.83;4.27;;;15.00;99.90;;;;;;5093650;28;20704;-61
2021/07/04 05:24:31;;;;;;;5.07;4.67;;;15.10;99.90;;;;;;5103050;28;20197;-60
2021/07/04 05:26:59;;;;;;;4.80;4.40;;;15.20;99.90;;;;;;5093975;28;20198;-60
2021/07/04 05:29:25;;;;;;;4.70;4.30;;;15.30;99.90;;;;;;5097892;28;20205;-61
2021/07/04 05:31:52;;;;;;;4.60;4.27;;;15.40;99.90;;;;;;5101492;28;20220;-60
2021/07/04 05:34:19;;;;;;;4.73;4.43;;;15.50;99.90;;;;;;5085755;28;20504;-61
2021/07/04 05:36:48;;;;;;;6.40;4.57;;;15.50;99.90;;;;;;5094418;28;20201;-61
2021/07/04 05:39:15;;;;;;;5.00;4.60;;;15.60;99.90;;;;;;5089178;28;20332;-61
2021/07/04 05:41:42;;;;;;;5.30;4.80;;;15.70;99.90;;;;;;5091341;28;20758;-61
2021/07/04 05:44:10;;;;;;;4.57;4.17;;;15.90;99.90;;;;;;5088230;28;20870;-60
2021/07/04 05:46:37;;;;;;;5.50;5.00;;;16.00;99.90;;;;;;5087579;28;20198;-62
2021/07/04 05:49:05;;;;;;;5.07;4.40;;;16.10;99.90;;;;;;5099939;28;20197;-61
2021/07/04 05:51:32;;;;;;;5.20;4.43;;;16.20;99.90;;;;;;5087387;28;20221;-61
2021/07/04 05:53:59;;;;;;;4.87;4.10;;;16.30;99.90;;;;;;5091858;28;20205;-58
2021/07/04 05:56:25;;;;;;;5.00;4.60;;;16.50;99.90;;;;;;5094654;28;20201;-61
2021/07/04 05:58:52;;;;;;;4.83;3.93;;;16.60;99.90;;;;;;5102132;28;20197;-61
2021/07/04 06:01:20;;;;;;;4.57;4.17;;;16.60;99.90;;;;;;5091292;28;20212;-61
2021/07/04 06:03:47;;;;;;;4.40;4.00;;;16.80;99.90;;;;;;5103165;28;20690;-61
2021/07/04 06:06:13;;;;;;;4.20;3.90;;;16.90;99.90;;;;;;5083735;28;20253;-62
2021/07/04 06:08:40;;;;;;;4.30;3.67;;;17.00;99.90;;;;;;5083321;28;20209;-61
2021/07/04 06:11:07;;;;;;;4.40;4.10;;;17.10;99.90;;;;;;5096663;28;20241;-61
2021/07/04 06:13:33;;;;;;;3.70;3.40;;;17.20;99.90;;;;;;5102463;28;20701;-61
2021/07/04 06:16:00;;;;;;;3.87;3.57;;;17.30;99.90;;;;;;5093422;28;20658;-61
2021/07/04 06:18:28;;;;;;;3.77;3.40;;;17.40;99.90;;;;;;5089508;28;20201;-61
2021/07/04 06:20:55;;;;;;;3.57;3.37;;;17.50;99.90;;;;;;5100981;28;20272;-61
2021/07/04 06:23:22;;;;;;;3.80;3.50;;;17.60;99.90;;;;;;5077234;28;20240;-61
2021/07/04 06:25:48;;;;;;;3.70;3.50;;;17.70;99.90;;;;;;5093364;28;20206;-62
2021/07/04 06:28:15;;;;;;;3.87;3.47;;;17.80;99.90;;;;;;5096471;28;20420;-62
2021/07/04 06:30:42;;;;;;;3.67;3.37;;;18.00;99.90;;;;;;5086294;28;20200;-50
2021/07/04 06:33:09;;;;;;;3.83;3.00;;;18.20;99.90;;;;;;5098502;28;20217;-48
2021/07/04 06:35:36;;;;;;;7.93;3.33;;;18.30;99.90;;;;;;5091545;28;20579;-50
2021/07/04 06:38:03;;;;;;;3.60;3.30;;;18.30;99.90;;;;;;5084359;28;20212;-48
2021/07/04 06:40:30;;;;;;;4.13;3.27;;;18.50;99.90;;;;;;5092224;28;20201;-49
2021/07/04 06:42:57;;;;;;;3.27;2.97;;;18.50;99.90;;;;;;5100371;28;20248;-47
2021/07/04 06:45:23;;;;;;;3.53;3.23;;;18.70;99.90;;;;;;5092892;28;20202;-51
2021/07/04 06:47:51;;;;;;;3.70;3.27;;;18.80;99.90;;;;;;5101436;28;20197;-49
2021/07/04 06:50:19;;;;;;;3.20;2.90;;;19.00;99.90;;;;;;5090525;28;20313;-49
2021/07/04 06:52:48;;;;;;;3.80;3.30;;;19.10;99.90;;;;;;5101640;28;20221;-50
2021/07/04 06:55:16;;;;;;;3.13;2.93;;;19.10;99.90;;;;;;5076162;28;20217;-47
2021/07/04 06:57:43;;;;;;;3.60;3.30;;;19.40;99.90;;;;;;5100154;28;20201;-49
2021/07/04 07:00:12;;;;;;;3.40;2.70;;;19.50;99.90;;;;;;5092386;28;20197;-50
2021/07/04 07:02:40;;;;;;;3.30;3.03;;;19.60;99.90;;;;;;5095551;28;20311;-48
2021/07/04 07:05:09;;;;;;;2.93;2.73;;;19.70;99.90;;;;;;5097272;28;20201;-50
2021/07/04 07:07:36;;;;;;;3.13;2.93;;;19.80;99.90;;;;;;5105394;28;20212;-48
2021/07/04 07:10:04;;;;;;;3.30;2.73;;;19.80;99.90;;;;;;5084182;28;20216;-48
2021/07/04 07:12:31;;;;;;;4.40;3.00;;;19.80;99.90;;;;;;5101339;28;20228;-48
2021/07/04 07:14:58;;;;;;;2.97;2.77;;;19.90;99.90;;;;;;5103050;28;20198;-47
2021/07/04 07:17:25;;;;;;;3.17;2.90;;;20.00;99.90;;;;;;5095159;28;20233;-51
2021/07/04 07:19:52;;;;;;;3.20;2.90;;;20.10;99.90;;;;;;5104358;28;20666;-53
2021/07/04 07:22:20;;;;;;;3.20;2.90;;;20.20;99.90;;;;;;5098494;28;20428;-47
2021/07/04 07:24:47;;;;;;;3.10;2.87;;;20.30;99.90;;;;;;5089165;28;20231;-48
2021/07/04 07:27:15;;;;;;;2.90;2.70;;;20.40;99.90;;;;;;5095267;28;20201;-50
2021/07/04 07:29:42;;;;;;;3.03;2.80;;;20.50;99.90;;;;;;5100451;28;20204;-47
2021/07/04 07:32:10;;;;;;;3.20;3.00;;;20.70;99.90;;;;;;5096031;28;20213;-53
2021/07/04 07:34:37;;;;;;;3.93;3.03;;;20.70;99.90;;;;;;5100206;28;20204;-51
2021/07/04 07:37:04;;;;;;;3.07;2.87;;;20.90;99.90;;;;;;5100313;28;20202;-50
2021/07/04 07:39:33;;;;;;;2.80;2.60;;;20.90;99.90;;;;;;5090254;28;20197;-54
2021/07/04 07:42:00;;;;;;;3.57;2.93;;;21.10;99.90;;;;;;5087210;28;20300;-51
2021/07/04 07:44:28;;;;;;;3.30;2.97;;;21.10;99.90;;;;;;5099984;28;20189;-49
2021/07/04 07:47:03;;;;;;;4.50;2.77;;;21.20;99.90;;;;;;5086521;28;20658;-52
2021/07/04 07:49:29;;;;;;;3.60;2.70;;;21.40;99.90;;;;;;5091419;28;20209;-52
2021/07/04 07:51:59;;;;;;;2.77;2.57;;;21.40;99.90;;;;;;5100931;28;20213;-51
2021/07/04 07:54:33;;;;;;;3.27;2.50;;;21.50;99.90;;;;;;5101544;28;20192;-49
2021/07/04 07:57:01;;;;;;;3.07;2.80;;;21.50;99.90;;;;;;5082869;28;20681;-51
2021/07/04 07:59:30;;;;;;;3.30;3.10;;;21.50;99.90;;;;;;5095449;28;20200;-51
2021/07/04 08:01:57;;;;;;;3.30;3.00;;;21.60;99.90;;;;;;5098187;28;20210;-47
2021/07/04 08:04:25;;;;;;;3.00;2.80;;;21.70;99.90;;;;;;5089294;28;20212;-51
2021/07/04 08:06:51;;;;;;;3.00;2.80;;;21.80;99.90;;;;;;5098812;28;20281;-47
2021/07/04 08:09:19;;;;;;;4.23;3.20;;;22.00;99.90;;;;;;5093846;28;20201;-48
2021/07/04 08:11:47;;;;;;;3.17;2.87;;;22.10;99.90;;;;;;5083470;28;20780;-51
2021/07/04 08:14:15;;;;;;;4.10;3.53;;;22.10;99.90;;;;;;5088183;28;20216;-46
2021/07/04 08:16:51;;;;;;;3.23;3.00;;;22.20;99.90;;;;;;5084479;28;20201;-46
2021/07/04 08:19:17;;;;;;;3.50;2.90;;;22.30;99.90;;;;;;5096317;28;20573;-49
2021/07/04 08:21:44;;;;;;;3.83;3.50;;;22.40;99.90;;;;;;5095211;28;20518;-48
2021/07/04 08:24:11;;;;;;;4.10;2.97;;;22.50;99.90;;;;;;5102177;28;20554;-50
2021/07/04 08:26:38;;;;;;;3.33;3.13;;;22.50;99.90;;;;;;5064323;28;20197;-49
2021/07/04 08:29:05;;;;;;;3.90;3.47;;;22.50;99.90;;;;;;5099720;28;20205;-46
2021/07/04 08:31:32;;;;;;;4.73;3.30;;;22.60;99.90;;;;;;5099423;28;20217;-48
2021/07/04 08:34:00;;;;;;;3.47;3.17;;;22.60;99.90;;;;;;5094225;28;20213;-47
2021/07/04 08:36:30;;;;;;;3.47;3.20;;;22.70;99.90;;;;;;5086602;28;20209;-47
2021/07/04 08:38:56;;;;;;;3.30;3.00;;;22.70;99.90;;;;;;5099784;28;20268;-48
2021/07/04 08:41:23;;;;;;;3.70;3.33;;;22.70;99.90;;;;;;5088657;28;20229;-50
2021/07/04 08:43:52;;;;;;;3.50;3.20;;;22.80;99.90;;;;;;5081379;28;20770;-47
2021/07/04 08:46:18;;;;;;;3.53;3.22;;;22.80;99.90;;;;;;5101144;28;20280;-50
2021/07/04 08:48:45;;;;;;;4.32;3.85;;;22.80;99.90;;;;;;5080013;28;20212;-47
2021/07/04 08:51:13;;;;;;;3.60;3.35;;;22.70;99.90;;;;;;5101539;28;20213;-48
2021/07/04 08:53:40;;;;;;;4.75;3.20;;;22.80;99.90;;;;;;5086634;28;20221;-47
2021/07/04 08:56:07;;;;;;;3.85;3.33;;;22.80;99.90;;;;;;5102206;28;20193;-47
2021/07/04 08:58:34;;;;;;;3.97;3.35;;;22.80;99.90;;;;;;5084056;28;20264;-48
2021/07/04 09:01:15;;;;;;;3.53;3.22;;;22.90;99.90;;;;;;5102759;28;20200;-45
2021/07/04 09:03:44;;;;;;;3.50;3.20;;;22.90;99.90;;;;;;5084449;28;20706;-47
2021/07/04 09:06:13;;;;;;;3.28;3.08;;;22.90;99.90;;;;;;5101462;28;20569;-46
2021/07/04 09:08:40;;;;;;;3.80;3.30;;;23.00;99.90;;;;;;5089987;28;20359;-45
2021/07/04 09:11:11;;;;;;;3.45;3.15;;;23.00;99.90;;;;;;5091084;28;20644;-47
2021/07/04 09:13:40;;;;;;;3.60;3.40;;;23.10;99.90;;;;;;5083465;28;20901;-46
2021/07/04 09:16:08;;;;;;;3.72;3.42;;;23.10;99.90;;;;;;5103553;28;20193;-46
2021/07/04 09:18:35;;;;;;;3.83;3.42;;;23.20;99.90;;;;;;5084777;28;20250;-46
2021/07/04 09:21:02;;;;;;;4.18;3.78;;;23.20;99.90;;;;;;5102510;28;20419;-46
2021/07/04 09:23:35;;;;;;;3.97;3.67;;;23.30;99.90;;;;;;5093815;28;20200;-49
2021/07/04 09:26:01;;;;;;;4.22;3.50;;;23.40;99.90;;;;;;5101266;28;20586;-46
2021/07/04 09:28:28;;;;;;;3.97;3.58;;;23.50;99.90;;;;;;5096966;28;20208;-47
2021/07/04 09:30:56;;;;;;;4.88;3.83;;;23.60;99.90;;;;;;5087816;28;20252;-46
2021/07/04 09:33:24;;;;;;;4.43;4.13;;;23.80;99.90;;;;;;5088708;28;20313;-50
2021/07/04 09:35:54;;;;;;;3.95;3.60;;;23.80;99.90;;;;;;5092538;28;20937;-49
2021/07/04 09:38:21;;;;;;;3.72;3.42;;;23.80;99.70;;;;;;5098063;28;20251;-47
2021/07/04 09:40:50;;;;;;;4.00;3.70;;;23.80;99.90;;;;;;5096012;28;20199;-46
2021/07/04 09:43:18;;;;;;;3.90;3.60;;;23.90;99.90;;;;;;5094108;28;20689;-47
2021/07/04 09:45:48;;;;;;;3.72;3.53;;;24.00;99.90;;;;;;5081638;28;20293;-46
2021/07/04 09:48:16;;;;;;;4.22;3.90;;;24.00;99.00;;;;;;5101889;28;20230;-47
2021/07/04 09:50:45;;;;;;;4.75;4.35;;;24.10;98.60;;;;;;5090987;28;20907;-46
2021/07/04 09:53:12;;;;;;;4.75;4.32;;;24.10;98.30;;;;;;5088944;28;20218;-46
2021/07/04 09:55:39;;;;;;;3.97;3.67;;;24.10;99.90;;;;;;5092463;28;20294;-46
2021/07/04 09:58:09;;;;;;;4.03;3.67;;;24.10;99.40;;;;;;5101955;28;20197;-46
2021/07/04 10:00:38;;;;;;;4.65;4.13;;;24.10;99.20;;;;;;5077632;28;20209;-47
2021/07/04 10:03:13;;;;;;;5.60;3.63;;;24.20;99.70;;;;;;5102772;28;21081;-48
2021/07/04 10:05:43;;;;;;;3.88;3.58;;;24.30;99.50;;;;;;5090039;28;20910;-47
2021/07/04 10:08:25;;;;;;;4.18;3.78;;;24.40;99.90;;;;;;5087064;28;20201;-48
2021/07/04 10:10:53;;;;;;;4.70;4.15;;;24.40;99.90;;;;;;5086363;28;20209;-46
2021/07/04 10:13:22;;;;;;;6.05;3.83;;;24.40;99.90;;;;;;5090869;28;20231;-49
2021/07/04 10:15:48;;;;;;;3.70;3.40;;;24.50;99.30;;;;;;5071640;28;20208;-47
2021/07/04 10:18:16;;;;;;;4.18;3.88;;;24.60;98.90;;;;;;5079663;28;20205;-47
2021/07/04 10:20:44;;;;;;;4.25;3.95;;;24.80;98.40;;;;;;5078563;28;20201;-47
2021/07/04 10:23:13;;;;;;;6.38;5.80;;;24.90;98.20;;;;;;5080123;28;20264;-51
2021/07/04 10:25:42;;;;;;;4.70;3.97;;;24.90;99.10;;;;;;5077848;28;20209;-50
2021/07/04 10:28:10;;;;;;;3.92;3.65;;;25.10;98.20;;;;;;5084293;28;20795;-50
2021/07/04 10:30:38;;;;;;;4.47;4.03;;;25.10;97.80;;;;;;5095669;28;20203;-48
2021/07/04 10:33:20;;;;;;;4.82;4.30;;;25.10;97.20;;;;;;5082957;28;20209;-47
2021/07/04 10:36:14;;;;;;;5.20;4.80;;;25.20;96.20;;;;;;5094557;28;20558;-52
2021/07/04 10:38:45;;;;;;;4.75;4.35;;;25.10;95.00;;;;;;5097750;28;20198;-52
2021/07/04 10:41:14;;;;;;;4.57;4.18;;;25.00;94.70;;;;;;5086887;28;20232;-48
2021/07/04 10:43:56;;;;;;;4.93;4.53;;;25.00;95.50;;;;;;5103274;28;20221;-52
2021/07/04 10:46:56;;;;;;;4.55;4.20;;;24.90;96.20;;;;;;5105485;28;20218;-47
2021/07/04 10:49:31;;;;;;;4.93;4.53;;;24.90;94.40;;;;;;5097405;28;20216;-48
2021/07/04 10:51:59;;;;;;;4.78;4.28;;;25.00;95.30;;;;;;5096677;28;20208;-46
2021/07/04 10:54:51;;;;;;;5.38;4.10;;;25.00;94.70;;;;;;5105706;28;20221;-49
2021/07/04 10:57:22;;;;;;;5.38;4.97;;;25.00;95.00;;;;;;5102527;28;20193;-46
2021/07/04 10:59:50;;;;;;;4.70;4.20;;;24.90;95.60;;;;;;5101981;28;20607;-47
2021/07/04 11:02:45;;;;;;;4.78;4.40;;;24.90;96.30;;;;;;5090918;28;20214;-46
2021/07/04 11:05:14;;;;;;;4.72;4.32;;;24.90;97.60;;;;;;5075771;28;20221;-48
2021/07/04 11:08:09;;;;;;;4.53;4.13;;;24.70;97.90;;;;;;5079313;28;20229;-49
2021/07/04 11:10:38;;;;;;;5.03;4.60;;;24.70;94.60;;;;;;5096450;28;20223;-48
2021/07/04 11:13:27;;;;;;;4.75;4.35;;;24.70;97.40;;;;;;5090625;27;20217;-50
2021/07/04 11:16:33;;;;;;;4.50;4.20;;;24.80;97.00;;;;;;5100469;28;21223;-49
2021/07/04 11:19:08;;;;;;;4.43;4.13;;;24.90;97.30;;;;;;5082461;28;20212;-45
2021/07/04 11:21:55;;;;;;;5.45;4.47;;;24.90;97.50;;;;;;5095244;28;20220;-46
2021/07/04 11:24:24;;;;;;;4.47;4.07;;;24.70;97.40;;;;;;5102668;28;20280;-47
2021/07/04 11:27:20;;;;;;;4.47;4.10;;;24.70;97.80;;;;;;5090322;28;20197;-47
2021/07/04 11:30:25;;;;;;;5.53;4.72;;;24.70;97.50;;;;;;5101718;28;20193;-50
2021/07/04 11:33:21;;;;;;;6.22;4.13;;;24.70;95.90;;;;;;5100865;28;20300;-49
2021/07/04 11:35:48;;;;;;;4.68;4.38;;;24.70;96.10;;;;;;5089555;28;20262;-46
2021/07/04 11:38:17;;;;;;;4.60;4.20;;;24.70;96.90;;;;;;5093891;28;20677;-45
2021/07/04 11:40:45;;;;;;;4.70;4.30;;;24.50;97.20;;;;;;5095957;28;20356;-49
2021/07/04 11:43:12;;;;;;;4.55;4.18;;;24.60;98.70;;;;;;5093392;28;20212;-48
2021/07/04 11:45:39;;;;;;;4.72;4.32;;;24.50;99.00;;;;;;5095877;28;20666;-50
2021/07/04 11:48:06;;;;;;;4.90;4.50;;;24.50;98.80;;;;;;5095603;28;20291;-46
2021/07/04 11:50:49;;;;;;;9.18;4.80;;;24.60;97.80;;;;;;5082881;28;20207;-49
2021/07/04 11:53:18;;;;;;;6.18;4.07;;;24.60;97.20;;;;;;5096125;28;20193;-48
2021/07/04 11:56:02;;;;;;;4.70;4.40;;;24.60;97.80;;;;;;5099989;28;20228;-48
2021/07/04 11:58:31;;;;;;;4.68;4.32;;;24.60;99.10;;;;;;5099847;28;20193;-51
2021/07/04 12:00:58;;;;;;;5.85;5.03;;;24.60;97.70;;;;;;5096084;28;20181;-47
2021/07/04 12:03:27;;;;;;;4.70;4.38;;;24.80;96.20;;;;;;5086043;28;20666;-47
2021/07/04 12:06:04;;;;;;;4.63;4.22;;;24.90;95.80;;;;;;5085318;28;20288;-46
2021/07/04 12:08:52;;;;;;;5.15;4.65;;;25.10;95.90;;;;;;5095939;28;20204;-47
2021/07/04 12:11:19;;;;;;;4.97;4.28;;;25.10;96.60;;;;;;5094900;28;20891;-48
2021/07/04 12:13:46;;;;;;;4.82;4.43;;;25.20;97.00;;;;;;5091221;28;20229;-49
2021/07/04 12:16:13;;;;;;;4.68;4.28;;;25.20;95.50;;;;;;5102630;28;20290;-49
2021/07/04 12:18:40;;;;;;;5.38;4.40;;;25.40;95.10;;;;;;5089302;28;20224;-47
2021/07/04 12:21:07;;;;;;;4.45;4.05;;;25.60;95.50;;;;;;5085102;28;20799;-47
2021/07/04 12:23:35;;;;;;;5.00;4.65;;;25.70;95.50;;;;;;5097781;28;20221;-51
2021/07/04 12:26:06;;;;;;;6.15;5.53;;;25.70;94.50;;;;;;5092277;28;20205;-47
2021/07/04 12:28:33;;;;;;;5.28;4.90;;;25.80;93.20;;;;;;5101692;28;20197;-52
2021/07/04 12:30:59;;;;;;;4.95;4.55;;;25.80;93.60;;;;;;5091615;28;20579;-49
2021/07/04 12:33:27;;;;;;;4.65;4.35;;;25.00;93.60;;;;;;5093417;28;20197;-51
2021/07/04 12:35:56;;;;;;;5.28;4.75;;;26.10;93.20;;;;;;5080464;28;22895;-51
2021/07/04 12:38:25;;;;;;;5.57;5.18;;;26.10;92.70;;;;;;5078319;28;20202;-49
2021/07/04 12:40:57;;;;;;;177.52;21.25;;;26.20;94.70;;;;;;5097079;28;20969;-51
2021/07/04 12:43:28;;;;;;;16.50;5.50;;;26.10;95.40;;;;;;5095913;28;20669;-51
2021/07/04 12:45:56;;;;;;;4.97;4.57;;;26.20;95.40;;;;;;5087741;28;20285;-51
2021/07/04 12:48:25;;;;;;;9.18;5.13;;;26.30;96.60;;;;;;5088667;28;20197;-46
2021/07/04 12:50:57;;;;;;;4.22;3.92;;;26.50;97.00;;;;;;5088777;28;20193;-48
2021/07/04 12:53:34;;;;;;;5.88;4.43;;;26.70;93.80;;;;;;5086621;28;20217;-48
2021/07/04 12:56:03;;;;;;;5.32;4.90;;;26.60;94.40;;;;;;5090465;28;20718;-52
2021/07/04 12:58:39;;;;;;;5.05;4.65;;;26.60;96.30;;;;;;5087077;28;20207;-52